Bigfork, Montana
Current Conditions -  °F | °C
As of 2:43 AM on Monday 20 Oct 2014 (Local Time) from KGPI Reporting Station
Haze Haze  
Wind Chill: 31°   Ceiling: 100
Heat Index: 31°   Visibility: 0.75mi
Dew Point: 31°   Wind: 0mph
Humidity: 100%   Direction: NA
Pressure: 29.87"   Gusts: NA
Location:  48.06°N, 114.08°W
Report Text: KGPI 200843Z AUTO 00000KT 3/4SM BR VV001 M01/M01 A2987 RMK AO2 VIS 1/4V5 T10061006 $
Loading
Personal Weather Stations






























Interactive Weather Map
Tropical Storm Tracking
New forecast layout! Learn more

10-Day Weather Forecast

Advertisements
Track Severe Weather on mobile